Time,TemperatureF,DewpointF,PressureIn,WindDirection,WindDirectionDegrees,WindSpeedMPH,WindSpeedGustMPH,Humidity,HourlyPrecipIn,Conditions,Clouds,dailyrainin,SoftwareType,DateUTC
2013-07-12 00:05:00,77.4,70.0,29.88,NNE,27,2.0,5.0,78,0.00,,,0.00,Wunderground v.1.15,2013-07-12 04:05:00,
2013-07-12 00:10:00,77.4,70.0,29.89,North,9,4.0,5.0,78,0.00,,,0.00,Wunderground v.1.15,2013-07-12 04:10:00,
2013-07-12 00:15:00,77.3,69.9,29.89,NNE,30,4.0,6.0,78,0.00,,,0.00,Wunderground v.1.15,2013-07-12 04:15:00,
2013-07-12 00:20:00,77.3,70.3,29.88,NNE,12,4.0,6.0,79,0.00,,,0.00,Wunderground v.1.15,2013-07-12 04:20:00,
2013-07-12 00:30:00,77.3,70.3,29.88,NNE,26,6.0,6.0,79,0.00,,,0.00,Wunderground v.1.15,2013-07-12 04:30:00,
2013-07-12 00:35:00,77.1,70.8,29.88,NNE,18,6.0,6.0,81,0.00,,,0.00,Wunderground v.1.15,2013-07-12 04:35:00,
2013-07-12 00:40:00,76.7,70.8,29.88,NNE,32,6.0,6.0,82,0.00,,,0.00,Wunderground v.1.15,2013-07-12 04:40:00,
2013-07-12 00:45:00,76.4,70.1,29.88,NNE,32,6.0,6.0,81,0.00,,,0.00,Wunderground v.1.15,2013-07-12 04:45:00,
2013-07-12 00:50:00,76.3,70.0,29.88,NE,39,6.0,8.0,81,0.00,,,0.00,Wunderground v.1.15,2013-07-12 04:50:00,
2013-07-12 00:55:00,76.3,69.7,29.88,NE,39,6.0,8.0,80,0.00,,,0.00,Wunderground v.1.15,2013-07-12 04:55:00,
2013-07-12 01:00:00,76.5,69.9,29.88,North,351,7.0,7.0,80,0.00,,,0.00,Wunderground v.1.15,2013-07-12 05:00:00,
2013-07-12 01:15:00,76.3,69.7,29.89,NNE,18,7.0,7.0,80,0.00,,,0.00,Wunderground v.1.15,2013-07-12 05:15:00,
2013-07-12 01:20:00,76.2,69.6,29.89,NE,36,6.0,9.0,80,0.00,,,0.00,Wunderground v.1.15,2013-07-12 05:20:00,
2013-07-12 01:25:00,76.3,69.3,29.89,ENE,72,6.0,6.0,79,0.00,,,0.00,Wunderground v.1.15,2013-07-12 05:25:00,
2013-07-12 01:30:00,76.4,69.4,29.89,NE,41,6.0,10.0,79,0.00,,,0.00,Wunderground v.1.15,2013-07-12 05:30:00,
2013-07-12 01:35:00,76.5,69.5,29.89,NE,51,7.0,8.0,79,0.00,,,0.00,Wunderground v.1.15,2013-07-12 05:35:00,
2013-07-12 01:40:00,76.5,69.1,29.89,NNE,22,7.0,8.0,78,0.00,,,0.00,Wunderground v.1.15,2013-07-12 05:40:00,
2013-07-12 01:50:00,76.4,69.4,29.89,NNE,18,8.0,11.0,79,0.00,,,0.00,Wunderground v.1.15,2013-07-12 05:50:00,
2013-07-12 01:55:00,76.3,69.7,29.89,NE,41,8.0,10.0,80,0.00,,,0.00,Wunderground v.1.15,2013-07-12 05:55:00,
2013-07-12 02:00:00,76.2,69.2,29.89,NE,44,8.0,8.0,79,0.00,,,0.00,Wunderground v.1.15,2013-07-12 06:00:00,
2013-07-12 02:05:00,76.2,69.2,29.89,NE,39,8.0,8.0,79,0.00,,,0.00,Wunderground v.1.15,2013-07-12 06:05:00,
2013-07-12 02:10:00,76.1,69.1,29.89,ENE,60,7.0,9.0,79,0.00,,,0.00,Wunderground v.1.15,2013-07-12 06:10:00,
2013-07-12 02:15:00,76.1,69.1,29.89,NE,49,8.0,9.0,79,0.00,,,0.00,Wunderground v.1.15,2013-07-12 06:15:00,
2013-07-12 02:20:00,75.9,69.6,29.89,NE,54,8.0,8.0,81,0.00,,,0.00,Wunderground v.1.15,2013-07-12 06:20:00,
2013-07-12 02:25:00,75.7,68.7,29.89,NE,46,7.0,8.0,79,0.00,,,0.00,Wunderground v.1.15,2013-07-12 06:25:00,
2013-07-12 02:35:00,75.9,67.0,29.89,NNE,20,8.0,9.0,74,0.00,,,0.00,Wunderground v.1.15,2013-07-12 06:35:00,
2013-07-12 02:40:00,75.9,67.0,29.89,NE,36,8.0,8.0,74,0.00,,,0.00,Wunderground v.1.15,2013-07-12 06:40:00,
2013-07-12 02:45:00,75.9,67.0,29.89,NE,44,7.0,8.0,74,0.00,,,0.00,Wunderground v.1.15,2013-07-12 06:45:00,
2013-07-12 02:50:00,75.9,67.0,29.89,ENE,65,7.0,7.0,74,0.00,,,0.00,Wunderground v.1.15,2013-07-12 06:50:00,
2013-07-12 02:55:00,75.8,66.9,29.89,NE,51,7.0,7.0,74,0.00,,,0.00,Wunderground v.1.15,2013-07-12 06:55:00,
2013-07-12 03:00:00,75.7,66.8,29.89,NE,41,6.0,6.0,74,0.00,,,0.00,Wunderground v.1.15,2013-07-12 07:00:00,
2013-07-12 03:05:00,75.8,66.5,29.89,NE,53,6.0,8.0,73,0.00,,,0.00,Wunderground v.1.15,2013-07-12 07:05:00,
2013-07-12 03:15:00,76.0,66.3,29.89,NNE,32,6.0,9.0,72,0.00,,,0.00,Wunderground v.1.15,2013-07-12 07:15:00,
2013-07-12 03:20:00,76.0,66.3,29.90,NE,39,6.0,6.0,72,0.00,,,0.00,Wunderground v.1.15,2013-07-12 07:20:00,
2013-07-12 03:25:00,76.0,66.3,29.90,North,351,6.0,6.0,72,0.00,,,0.00,Wunderground v.1.15,2013-07-12 07:25:00,
2013-07-12 03:30:00,75.9,66.6,29.90,NNE,25,6.0,6.0,73,0.00,,,0.00,Wunderground v.1.15,2013-07-12 07:30:00,
2013-07-12 03:35:00,75.9,66.6,29.90,NNE,27,5.0,6.0,73,0.00,,,0.00,Wunderground v.1.15,2013-07-12 07:35:00,
2013-07-12 03:40:00,75.8,66.5,29.90,NE,41,5.0,6.0,73,0.00,,,0.00,Wunderground v.1.15,2013-07-12 07:40:00,
2013-07-12 03:45:00,75.8,66.5,29.90,NE,48,4.0,6.0,73,0.00,,,0.00,Wunderground v.1.15,2013-07-12 07:45:00,
2013-07-12 03:50:00,75.7,66.4,29.90,NE,54,5.0,5.0,73,0.00,,,0.00,Wunderground v.1.15,2013-07-12 07:50:00,
2013-07-12 04:00:00,75.6,65.5,29.90,NE,39,6.0,7.0,71,0.00,,,0.00,Wunderground v.1.15,2013-07-12 08:00:00,
2013-07-12 04:05:00,75.5,65.8,29.90,NE,39,6.0,7.0,72,0.00,,,0.00,Wunderground v.1.15,2013-07-12 08:05:00,
2013-07-12 04:10:00,75.4,65.7,29.90,NNE,25,6.0,7.0,72,0.00,,,0.00,Wunderground v.1.15,2013-07-12 08:10:00,
2013-07-12 04:15:00,75.3,65.6,29.90,NNE,33,6.0,7.0,72,0.00,,,0.00,Wunderground v.1.15,2013-07-12 08:15:00,
2013-07-12 04:20:00,75.2,65.6,29.90,NNE,27,6.0,6.0,72,0.00,,,0.00,Wunderground v.1.15,2013-07-12 08:20:00,
2013-07-12 04:25:00,75.3,65.6,29.91,NE,46,6.0,10.0,72,0.00,,,0.00,Wunderground v.1.15,2013-07-12 08:25:00,
2013-07-12 04:30:00,75.3,65.6,29.91,NE,43,6.0,8.0,72,0.00,,,0.00,Wunderground v.1.15,2013-07-12 08:30:00,
2013-07-12 04:40:00,75.2,65.6,29.91,NE,43,7.0,7.0,72,0.00,,,0.00,Wunderground v.1.15,2013-07-12 08:40:00,
2013-07-12 04:45:00,75.1,65.5,29.91,North,1,7.0,7.0,72,0.00,,,0.00,Wunderground v.1.15,2013-07-12 08:45:00,
2013-07-12 04:50:00,75.0,65.4,29.91,North,4,7.0,8.0,72,0.00,,,0.00,Wunderground v.1.15,2013-07-12 08:50:00,
2013-07-12 04:55:00,75.0,65.4,29.91,NNE,12,7.0,8.0,72,0.00,,,0.00,Wunderground v.1.15,2013-07-12 08:55:00,
2013-07-12 05:00:00,74.9,65.3,29.91,NE,39,7.0,7.0,72,0.00,,,0.00,Wunderground v.1.15,2013-07-12 09:00:00,
2013-07-12 05:05:00,74.8,65.2,29.91,NNE,16,7.0,9.0,72,0.00,,,0.00,Wunderground v.1.15,2013-07-12 09:05:00,
2013-07-12 05:10:00,74.8,65.2,29.91,ENE,70,7.0,8.0,72,0.00,,,0.00,Wunderground v.1.15,2013-07-12 09:10:00,
2013-07-12 05:20:00,74.6,65.0,29.91,NE,41,6.0,7.0,72,0.00,,,0.00,Wunderground v.1.15,2013-07-12 09:20:00,
2013-07-12 05:30:00,74.4,65.2,29.92,NE,39,6.0,9.0,73,0.00,,,0.00,Wunderground v.1.15,2013-07-12 09:30:00,
2013-07-12 05:35:00,74.3,65.5,29.91,NE,41,6.0,9.0,74,0.00,,,0.00,Wunderground v.1.15,2013-07-12 09:35:00,
2013-07-12 05:40:00,74.2,65.4,29.92,North,357,6.0,8.0,74,0.00,,,0.00,Wunderground v.1.15,2013-07-12 09:40:00,
2013-07-12 05:45:00,74.1,65.7,29.92,NE,51,6.0,8.0,75,0.00,,,0.00,Wunderground v.1.15,2013-07-12 09:45:00,
2013-07-12 05:50:00,74.1,66.0,29.92,NNW,330,6.0,6.0,76,0.00,,,0.00,Wunderground v.1.15,2013-07-12 09:50:00,
2013-07-12 05:55:00,74.0,66.0,29.92,NE,41,6.0,6.0,76,0.00,,,0.00,Wunderground v.1.15,2013-07-12 09:55:00,
2013-07-12 06:05:00,73.8,66.1,29.93,NE,46,7.0,8.0,77,0.00,,,0.00,Wunderground v.1.15,2013-07-12 10:05:00,
2013-07-12 06:10:00,73.8,66.1,29.93,NE,40,6.0,6.0,77,0.00,,,0.00,Wunderground v.1.15,2013-07-12 10:10:00,
2013-07-12 06:15:00,73.7,66.4,29.93,NNE,33,7.0,9.0,78,0.00,,,0.00,Wunderground v.1.15,2013-07-12 10:15:00,
2013-07-12 06:20:00,73.7,66.4,29.93,NE,46,7.0,7.0,78,0.00,,,0.00,Wunderground v.1.15,2013-07-12 10:20:00,
2013-07-12 06:25:00,73.7,66.4,29.93,NE,46,7.0,14.0,78,0.00,,,0.00,Wunderground v.1.15,2013-07-12 10:25:00,
2013-07-12 06:30:00,73.7,66.8,29.94,NNE,22,8.0,8.0,79,0.00,,,0.00,Wunderground v.1.15,2013-07-12 10:30:00,
2013-07-12 06:35:00,73.6,66.7,29.94,North,11,7.0,8.0,79,0.00,,,0.00,Wunderground v.1.15,2013-07-12 10:35:00,
2013-07-12 06:45:00,73.5,67.3,29.94,NE,56,7.0,7.0,81,0.00,,,0.00,Wunderground v.1.15,2013-07-12 10:45:00,
2013-07-12 06:50:00,73.4,67.2,29.94,NE,43,7.0,7.0,81,0.00,,,0.00,Wunderground v.1.15,2013-07-12 10:50:00,
2013-07-12 06:55:00,73.3,67.5,29.94,ENE,61,7.0,7.0,82,0.00,,,0.00,Wunderground v.1.15,2013-07-12 10:55:00,
2013-07-12 07:00:00,73.2,67.4,29.94,NNE,30,7.0,7.0,82,0.00,,,0.00,Wunderground v.1.15,2013-07-12 11:00:00,
2013-07-12 07:05:00,73.2,67.4,29.94,NE,46,7.0,8.0,82,0.00,,,0.00,Wunderground v.1.15,2013-07-12 11:05:00,
2013-07-12 07:10:00,73.1,67.3,29.94,NE,34,7.0,7.0,82,0.00,,,0.00,Wunderground v.1.15,2013-07-12 11:10:00,
2013-07-12 07:15:00,73.2,67.4,29.94,NE,36,8.0,12.0,82,0.00,,,0.00,Wunderground v.1.15,2013-07-12 11:15:00,
2013-07-12 07:25:00,73.2,67.4,29.94,NE,39,9.0,9.0,82,0.00,,,0.00,Wunderground v.1.15,2013-07-12 11:25:00,
2013-07-12 07:30:00,73.3,67.5,29.94,ENE,57,8.0,8.0,82,0.00,,,0.00,Wunderground v.1.15,2013-07-12 11:30:00,
2013-07-12 07:35:00,73.4,67.6,29.95,NNE,25,7.0,8.0,82,0.00,,,0.00,Wunderground v.1.15,2013-07-12 11:35:00,
2013-07-12 07:40:00,73.7,67.9,29.94,NE,41,7.0,7.0,82,0.00,,,0.00,Wunderground v.1.15,2013-07-12 11:40:00,
2013-07-12 07:45:00,73.8,67.6,29.95,NNE,33,7.0,7.0,81,0.00,,,0.00,Wunderground v.1.15,2013-07-12 11:45:00,
2013-07-12 07:50:00,73.8,68.0,29.95,NE,49,8.0,11.0,82,0.00,,,0.00,Wunderground v.1.15,2013-07-12 11:50:00,
2013-07-12 07:55:00,73.7,67.9,29.95,NE,55,8.0,11.0,82,0.00,,,0.00,Wunderground v.1.15,2013-07-12 11:55:00,
2013-07-12 08:05:00,73.5,67.7,29.95,ENE,60,8.0,11.0,82,0.00,,,0.00,Wunderground v.1.15,2013-07-12 12:05:00,
2013-07-12 08:10:00,73.5,68.0,29.95,ENE,63,8.0,8.0,83,0.00,,,0.00,Wunderground v.1.15,2013-07-12 12:10:00,
2013-07-12 08:15:00,73.3,67.8,29.96,NE,51,9.0,9.0,83,0.00,,,0.00,Wunderground v.1.15,2013-07-12 12:15:00,
2013-07-12 08:20:00,73.2,68.1,29.96,NE,47,8.0,10.0,84,0.00,,,0.00,Wunderground v.1.15,2013-07-12 12:20:00,
2013-07-12 08:25:00,73.0,67.9,29.96,NE,49,8.0,10.0,84,0.00,,,0.00,Wunderground v.1.15,2013-07-12 12:25:00,
2013-07-12 08:30:00,72.9,68.1,29.96,ENE,60,7.0,7.0,85,0.00,,,0.00,Wunderground v.1.15,2013-07-12 12:30:00,
2013-07-12 08:35:00,72.8,68.0,29.96,NE,53,7.0,7.0,85,0.00,,,0.00,Wunderground v.1.15,2013-07-12 12:35:00,
2013-07-12 08:45:00,72.8,68.0,29.96,NE,56,7.0,7.0,85,0.00,,,0.00,Wunderground v.1.15,2013-07-12 12:45:00,
2013-07-12 08:50:00,72.8,68.0,29.97,NE,51,7.0,8.0,85,0.00,,,0.00,Wunderground v.1.15,2013-07-12 12:50:00,
2013-07-12 08:55:00,72.9,68.1,29.97,NE,36,6.0,8.0,85,0.00,,,0.00,Wunderground v.1.15,2013-07-12 12:55:00,
2013-07-12 09:00:00,72.9,68.1,29.97,ENE,64,6.0,6.0,85,0.00,,,0.00,Wunderground v.1.15,2013-07-12 13:00:00,
2013-07-12 09:05:00,72.9,68.5,29.97,NE,43,7.0,7.0,86,0.00,,,0.00,Wunderground v.1.15,2013-07-12 13:05:00,
2013-07-12 09:10:00,72.9,68.5,29.97,NE,43,7.0,7.0,86,0.00,,,0.00,Wunderground v.1.15,2013-07-12 13:10:00,
2013-07-12 09:15:00,72.9,68.5,29.97,NE,36,7.0,7.0,86,0.00,,,0.00,Wunderground v.1.15,2013-07-12 13:15:00,
2013-07-12 09:25:00,73.0,68.6,29.97,NE,53,7.0,7.0,86,0.00,,,0.00,Wunderground v.1.15,2013-07-12 13:25:00,
2013-07-12 09:30:00,73.0,68.6,29.97,NE,56,8.0,11.0,86,0.00,,,0.00,Wunderground v.1.15,2013-07-12 13:30:00,
2013-07-12 09:35:00,72.9,68.8,29.97,NNE,29,9.0,11.0,87,0.00,,,0.00,Wunderground v.1.15,2013-07-12 13:35:00,
2013-07-12 09:40:00,73.0,68.9,29.97,ENE,60,9.0,9.0,87,0.00,,,0.00,Wunderground v.1.15,2013-07-12 13:40:00,
2013-07-12 09:45:00,72.9,68.8,29.97,NE,46,9.0,11.0,87,0.00,,,0.00,Wunderground v.1.15,2013-07-12 13:45:00,
2013-07-12 09:50:00,72.9,69.1,29.97,NE,53,8.0,8.0,88,0.00,,,0.00,Wunderground v.1.15,2013-07-12 13:50:00,
2013-07-12 09:55:00,72.8,69.0,29.98,NE,46,7.0,8.0,88,0.00,,,0.00,Wunderground v.1.15,2013-07-12 13:55:00,
2013-07-12 10:00:00,72.7,69.3,29.98,ENE,68,6.0,6.0,89,0.00,,,0.00,Wunderground v.1.15,2013-07-12 14:00:00,
2013-07-12 10:10:00,72.3,69.2,29.98,ENE,64,5.0,8.0,90,0.00,,,0.00,Wunderground v.1.15,2013-07-12 14:10:00,
2013-07-12 10:15:00,72.3,69.5,29.98,NE,56,7.0,9.0,91,0.00,,,0.00,Wunderground v.1.15,2013-07-12 14:15:00,
2013-07-12 10:20:00,72.4,69.6,29.98,ENE,58,8.0,8.0,91,0.00,,,0.00,Wunderground v.1.15,2013-07-12 14:20:00,
2013-07-12 10:25:00,72.4,69.6,29.98,ENE,64,7.0,8.0,91,0.00,,,0.00,Wunderground v.1.15,2013-07-12 14:25:00,
2013-07-12 10:30:00,72.4,69.9,29.98,NE,56,8.0,8.0,92,0.00,,,0.00,Wunderground v.1.15,2013-07-12 14:30:00,
2013-07-12 10:35:00,72.4,69.9,29.98,ENE,58,8.0,8.0,92,0.00,,,0.00,Wunderground v.1.15,2013-07-12 14:35:00,
2013-07-12 10:40:00,72.5,70.0,29.98,NNE,29,8.0,11.0,92,0.00,,,0.00,Wunderground v.1.15,2013-07-12 14:40:00,
2013-07-12 10:50:00,72.6,70.1,29.98,ENE,75,8.0,9.0,92,0.00,,,0.00,Wunderground v.1.15,2013-07-12 14:50:00,
2013-07-12 10:55:00,72.6,70.1,29.98,ENE,58,8.0,9.0,92,0.00,,,0.00,Wunderground v.1.15,2013-07-12 14:55:00,
2013-07-12 11:00:00,72.6,70.1,29.98,NE,54,8.0,8.0,92,0.00,,,0.00,Wunderground v.1.15,2013-07-12 15:00:00,
2013-07-12 11:05:00,72.6,70.1,29.98,NE,46,8.0,8.0,92,0.00,,,0.00,Wunderground v.1.15,2013-07-12 15:05:00,
2013-07-12 11:10:00,72.6,70.1,29.98,NE,51,8.0,8.0,92,0.00,,,0.00,Wunderground v.1.15,2013-07-12 15:10:00,
2013-07-12 11:15:00,72.5,70.0,29.98,NE,56,8.0,8.0,92,0.00,,,0.00,Wunderground v.1.15,2013-07-12 15:15:00,
2013-07-12 11:20:00,72.5,70.0,29.98,NE,46,7.0,8.0,92,0.00,,,0.00,Wunderground v.1.15,2013-07-12 15:20:00,
2013-07-12 11:30:00,72.5,70.0,29.99,ENE,61,7.0,8.0,92,0.00,,,0.00,Wunderground v.1.15,2013-07-12 15:30:00,
2013-07-12 11:35:00,72.4,69.9,29.99,NE,49,7.0,8.0,92,0.00,,,0.00,Wunderground v.1.15,2013-07-12 15:35:00,
2013-07-12 11:40:00,72.4,69.9,29.99,ENE,70,7.0,9.0,92,0.00,,,0.00,Wunderground v.1.15,2013-07-12 15:40:00,
2013-07-12 11:45:00,72.4,69.9,29.99,East,84,8.0,9.0,92,0.00,,,0.00,Wunderground v.1.15,2013-07-12 15:45:00,
2013-07-12 11:50:00,72.4,69.9,29.99,East,100,8.0,8.0,92,0.00,,,0.00,Wunderground v.1.15,2013-07-12 15:50:00,
2013-07-12 11:55:00,72.4,69.9,29.99,ENE,75,7.0,8.0,92,0.00,,,0.00,Wunderground v.1.15,2013-07-12 15:55:00,
2013-07-12 12:00:00,72.4,69.9,29.99,NE,43,8.0,8.0,92,0.00,,,0.00,Wunderground v.1.15,2013-07-12 16:00:00,
2013-07-12 12:05:00,72.3,69.8,29.99,ENE,68,9.0,-999.0,92,0.00,,,0.29,Wunderground v.1.15,2013-07-12 16:05:00,
2013-07-12 12:10:00,72.3,69.8,29.99,ENE,58,8.0,8.0,92,0.00,,,0.00,Wunderground v.1.15,2013-07-12 16:10:00,
2013-07-12 12:15:00,72.2,69.7,29.99,NE,46,7.0,8.0,92,0.00,,,0.00,Wunderground v.1.15,2013-07-12 16:15:00,
2013-07-12 12:20:00,72.2,69.7,29.99,ESE,114,8.0,8.0,92,0.00,,,0.00,Wunderground v.1.15,2013-07-12 16:20:00,
2013-07-12 12:25:00,72.2,69.7,29.99,ENE,72,8.0,8.0,92,0.00,,,0.00,Wunderground v.1.15,2013-07-12 16:25:00,
2013-07-12 12:30:00,72.2,69.7,29.99,ENE,58,8.0,8.0,92,0.00,,,0.00,Wunderground v.1.15,2013-07-12 16:30:00,
2013-07-12 12:35:00,72.1,69.6,29.99,ENE,58,8.0,8.0,92,0.00,,,0.00,Wunderground v.1.15,2013-07-12 16:35:00,
2013-07-12 12:40:00,72.0,69.9,29.99,East,95,9.0,9.0,93,0.00,,,0.00,Wunderground v.1.15,2013-07-12 16:40:00,
2013-07-12 12:45:00,71.9,69.8,29.99,ENE,72,9.0,9.0,93,0.00,,,0.00,Wunderground v.1.15,2013-07-12 16:45:00,
2013-07-12 12:50:00,71.8,69.7,29.99,NE,51,9.0,9.0,93,0.00,,,0.00,Wunderground v.1.15,2013-07-12 16:50:00,
2013-07-12 13:00:00,71.6,69.8,29.99,ENE,71,8.0,8.0,94,0.00,,,0.00,Wunderground v.1.15,2013-07-12 17:00:00,
2013-07-12 13:05:00,71.6,69.8,29.99,ENE,68,8.0,-999.0,94,0.00,,,0.29,Wunderground v.1.15,2013-07-12 17:05:00,
2013-07-12 13:10:00,71.6,69.8,29.99,ENE,68,9.0,-999.0,94,0.00,,,0.29,Wunderground v.1.15,2013-07-12 17:10:00,
2013-07-12 13:15:00,71.6,69.8,29.99,ENE,66,9.0,12.0,94,0.00,,,0.00,Wunderground v.1.15,2013-07-12 17:15:00,
2013-07-12 13:20:00,71.7,69.9,29.99,NE,51,9.0,9.0,94,0.00,,,0.00,Wunderground v.1.15,2013-07-12 17:20:00,
2013-07-12 13:25:00,71.7,69.9,29.99,ENE,68,8.0,-999.0,94,0.00,,,0.29,Wunderground v.1.15,2013-07-12 17:25:00,
2013-07-12 13:30:00,71.8,70.0,29.99,ENE,78,8.0,8.0,94,0.00,,,0.00,Wunderground v.1.15,2013-07-12 17:30:00,
2013-07-12 13:35:00,71.8,70.0,29.99,ENE,69,8.0,8.0,94,0.00,,,0.00,Wunderground v.1.15,2013-07-12 17:35:00,
2013-07-12 13:40:00,71.8,70.0,29.99,ENE,72,8.0,9.0,94,0.00,,,0.00,Wunderground v.1.15,2013-07-12 17:40:00,
2013-07-12 13:45:00,71.8,69.7,29.99,ENE,57,9.0,9.0,93,0.00,,,0.00,Wunderground v.1.15,2013-07-12 17:45:00,
2013-07-12 13:50:00,71.8,70.0,29.99,ENE,68,10.0,-999.0,94,0.00,,,0.29,Wunderground v.1.15,2013-07-12 17:50:00,
2013-07-12 13:55:00,71.7,69.9,29.99,ENE,68,10.0,-999.0,94,0.00,,,0.29,Wunderground v.1.15,2013-07-12 17:55:00,
2013-07-12 14:00:00,71.6,69.8,29.98,East,84,9.0,13.0,94,0.00,,,0.00,Wunderground v.1.15,2013-07-12 18:00:00,
2013-07-12 14:05:00,71.6,69.5,29.98,ENE,68,8.0,-999.0,93,0.00,,,0.29,Wunderground v.1.15,2013-07-12 18:05:00,
2013-07-12 14:10:00,71.4,69.6,29.98,East,89,9.0,9.0,94,0.00,,,0.00,Wunderground v.1.15,2013-07-12 18:10:00,
2013-07-12 14:15:00,71.2,69.4,29.98,ENE,58,10.0,10.0,94,0.00,,,0.00,Wunderground v.1.15,2013-07-12 18:15:00,
2013-07-12 14:20:00,71.2,69.4,29.98,ENE,66,11.0,11.0,94,0.00,,,0.00,Wunderground v.1.15,2013-07-12 18:20:00,
2013-07-12 14:25:00,71.1,69.3,29.98,ENE,78,11.0,11.0,94,0.00,,,0.00,Wunderground v.1.15,2013-07-12 18:25:00,
2013-07-12 14:30:00,71.1,69.3,29.98,ENE,78,11.0,14.0,94,0.00,,,0.00,Wunderground v.1.15,2013-07-12 18:30:00,
2013-07-12 14:45:00,70.8,69.0,29.98,East,83,9.0,13.0,94,0.15,,,0.01,Wunderground v.1.15,2013-07-12 18:45:00,
2013-07-12 14:50:00,70.7,69.2,29.98,ENE,77,9.0,9.0,95,0.11,,,0.02,Wunderground v.1.15,2013-07-12 18:50:00,
2013-07-12 14:55:00,70.6,69.1,29.98,ENE,72,9.0,11.0,95,0.20,,,0.04,Wunderground v.1.15,2013-07-12 18:55:00,
2013-07-12 15:00:00,70.5,69.0,29.98,East,86,9.0,13.0,95,0.54,,,0.08,Wunderground v.1.15,2013-07-12 19:00:00,
2013-07-12 15:05:00,70.3,68.8,29.98,East,80,10.0,13.0,95,1.01,,,0.14,Wunderground v.1.15,2013-07-12 19:05:00,
2013-07-12 15:10:00,70.1,68.9,29.98,ENE,60,9.0,9.0,96,0.17,,,0.17,Wunderground v.1.15,2013-07-12 19:10:00,
2013-07-12 15:15:00,70.1,68.9,29.98,ENE,64,9.0,10.0,96,0.14,,,0.19,Wunderground v.1.15,2013-07-12 19:15:00,
2013-07-12 15:25:00,70.1,68.9,29.98,East,95,10.0,13.0,96,0.49,,,0.23,Wunderground v.1.15,2013-07-12 19:25:00,
2013-07-12 15:30:00,70.1,69.2,29.99,East,82,11.0,13.0,97,0.81,,,0.28,Wunderground v.1.15,2013-07-12 19:30:00,
2013-07-12 15:40:00,70.1,69.2,29.99,East,88,9.0,9.0,97,0.10,,,0.29,Wunderground v.1.15,2013-07-12 19:40:00,
2013-07-12 15:45:00,70.0,69.1,29.98,East,85,8.0,10.0,97,0.06,,,0.29,Wunderground v.1.15,2013-07-12 19:45:00,
2013-07-12 15:55:00,70.0,68.8,29.98,East,97,8.0,11.0,96,0.00,,,0.29,Wunderground v.1.15,2013-07-12 19:55:00,
2013-07-12 16:05:00,70.1,68.9,29.98,ENE,75,10.0,13.0,96,0.00,,,0.29,Wunderground v.1.15,2013-07-12 20:05:00,
2013-07-12 16:10:00,70.1,68.9,29.98,East,88,10.0,12.0,96,0.00,,,0.29,Wunderground v.1.15,2013-07-12 20:10:00,
2013-07-12 16:15:00,70.2,69.0,29.98,ENE,72,10.0,12.0,96,0.00,,,0.29,Wunderground v.1.15,2013-07-12 20:15:00,
2013-07-12 16:20:00,70.2,69.0,29.98,East,82,10.0,10.0,96,0.00,,,0.29,Wunderground v.1.15,2013-07-12 20:20:00,
2013-07-12 16:25:00,70.2,69.0,29.99,ENE,64,10.0,10.0,96,0.00,,,0.29,Wunderground v.1.15,2013-07-12 20:25:00,
2013-07-12 16:30:00,70.2,69.0,29.99,ENE,72,11.0,11.0,96,0.00,,,0.29,Wunderground v.1.15,2013-07-12 20:30:00,
2013-07-12 16:35:00,70.1,68.9,29.99,ENE,72,11.0,11.0,96,0.00,,,0.29,Wunderground v.1.15,2013-07-12 20:35:00,
2013-07-12 16:45:00,70.1,68.9,29.99,East,96,11.0,11.0,96,0.00,,,0.29,Wunderground v.1.15,2013-07-12 20:45:00,
2013-07-12 16:50:00,70.1,68.9,29.99,East,96,12.0,12.0,96,0.00,,,0.29,Wunderground v.1.15,2013-07-12 20:50:00,
2013-07-12 16:55:00,70.1,68.9,29.99,ESE,111,11.0,12.0,96,0.00,,,0.29,Wunderground v.1.15,2013-07-12 20:55:00,
2013-07-12 17:00:00,70.2,69.0,29.99,ENE,70,11.0,11.0,96,0.00,,,0.29,Wunderground v.1.15,2013-07-12 21:00:00,
2013-07-12 17:20:00,70.3,68.8,29.99,East,82,12.0,12.0,95,0.00,,,0.29,Wunderground v.1.15,2013-07-12 21:20:00,
2013-07-12 17:25:00,70.3,68.8,29.99,NE,49,12.0,12.0,95,0.00,,,0.29,Wunderground v.1.15,2013-07-12 21:25:00,
2013-07-12 17:30:00,70.2,68.7,29.99,ENE,78,10.0,15.0,95,0.00,,,0.29,Wunderground v.1.15,2013-07-12 21:30:00,
2013-07-12 17:35:00,70.2,68.7,29.99,ESE,106,10.0,15.0,95,0.00,,,0.29,Wunderground v.1.15,2013-07-12 21:35:00,
2013-07-12 17:45:00,70.0,68.5,29.99,East,94,12.0,14.0,95,0.00,,,0.29,Wunderground v.1.15,2013-07-12 21:45:00,
2013-07-12 17:50:00,69.9,68.4,29.99,ENE,70,12.0,12.0,95,0.00,,,0.29,Wunderground v.1.15,2013-07-12 21:50:00,
2013-07-12 17:55:00,69.8,68.3,29.99,East,80,11.0,13.0,95,0.00,,,0.29,Wunderground v.1.15,2013-07-12 21:55:00,
2013-07-12 18:00:00,69.7,68.2,29.99,ENE,72,11.0,11.0,95,0.00,,,0.29,Wunderground v.1.15,2013-07-12 22:00:00,
2013-07-12 18:05:00,69.7,68.5,29.99,NE,56,11.0,11.0,96,0.00,,,0.29,Wunderground v.1.15,2013-07-12 22:05:00,
2013-07-12 18:20:00,69.5,68.3,29.99,East,86,11.0,11.0,96,0.00,,,0.29,Wunderground v.1.15,2013-07-12 22:20:00,
2013-07-12 18:30:00,69.3,68.1,30.00,ENE,61,11.0,12.0,96,0.00,,,0.29,Wunderground v.1.15,2013-07-12 22:30:00,
2013-07-12 18:35:00,69.3,68.4,30.00,ENE,64,11.0,12.0,97,0.00,,,0.29,Wunderground v.1.15,2013-07-12 22:35:00,
2013-07-12 18:40:00,69.3,68.1,30.00,ENE,72,11.0,13.0,96,0.00,,,0.29,Wunderground v.1.15,2013-07-12 22:40:00,
2013-07-12 18:45:00,69.4,68.2,30.00,ENE,67,11.0,13.0,96,0.00,,,0.29,Wunderground v.1.15,2013-07-12 22:45:00,
2013-07-12 18:50:00,69.4,68.2,30.00,ENE,72,10.0,10.0,96,0.00,,,0.29,Wunderground v.1.15,2013-07-12 22:50:00,
2013-07-12 18:55:00,69.4,67.9,30.00,ENE,60,11.0,16.0,95,0.00,,,0.29,Wunderground v.1.15,2013-07-12 22:55:00,
2013-07-12 19:10:00,69.4,67.9,30.00,ENE,72,13.0,13.0,95,0.00,,,0.29,Wunderground v.1.15,2013-07-12 23:10:00,
2013-07-12 19:20:00,69.4,67.9,30.00,ENE,64,12.0,13.0,95,0.00,,,0.29,Wunderground v.1.15,2013-07-12 23:20:00,
2013-07-12 19:30:00,69.4,67.9,30.00,East,87,12.0,12.0,95,0.00,,,0.29,Wunderground v.1.15,2013-07-12 23:30:00,
2013-07-12 19:35:00,69.4,67.9,30.00,East,87,12.0,12.0,95,0.00,,,0.29,Wunderground v.1.15,2013-07-12 23:35:00,
2013-07-12 19:40:00,69.4,67.9,30.00,ENE,67,10.0,11.0,95,0.00,,,0.29,Wunderground v.1.15,2013-07-12 23:40:00,
2013-07-12 19:45:00,69.4,67.9,30.00,NE,46,10.0,11.0,95,0.00,,,0.29,Wunderground v.1.15,2013-07-12 23:45:00,
2013-07-12 19:50:00,69.5,68.0,30.00,ENE,68,10.0,11.0,95,0.00,,,0.29,Wunderground v.1.15,2013-07-12 23:50:00,
2013-07-12 19:55:00,69.5,68.0,30.01,ENE,69,10.0,11.0,95,0.00,,,0.29,Wunderground v.1.15,2013-07-12 23:55:00,
2013-07-12 20:00:00,69.5,68.0,30.00,ENE,58,10.0,10.0,95,0.00,,,0.29,Wunderground v.1.15,2013-07-13 00:00:00,
2013-07-12 20:05:00,69.6,68.1,30.01,NE,40,10.0,14.0,95,0.00,,,0.29,Wunderground v.1.15,2013-07-13 00:05:00,
2013-07-12 20:20:00,69.6,68.1,30.01,East,88,10.0,10.0,95,0.00,,,0.29,Wunderground v.1.15,2013-07-13 00:20:00,
2013-07-12 20:30:00,69.5,68.0,30.01,ENE,63,10.0,15.0,95,0.00,,,0.29,Wunderground v.1.15,2013-07-13 00:30:00,
2013-07-12 20:35:00,69.5,68.0,30.01,ENE,64,11.0,15.0,95,0.00,,,0.29,Wunderground v.1.15,2013-07-13 00:35:00,
2013-07-12 20:40:00,69.5,68.0,30.00,ENE,58,11.0,11.0,95,0.00,,,0.29,Wunderground v.1.15,2013-07-13 00:40:00,
2013-07-12 20:45:00,69.5,68.0,30.01,ENE,72,11.0,11.0,95,0.00,,,0.29,Wunderground v.1.15,2013-07-13 00:45:00,
2013-07-12 20:50:00,69.5,68.0,30.01,ENE,61,10.0,10.0,95,0.00,,,0.29,Wunderground v.1.15,2013-07-13 00:50:00,
2013-07-12 21:05:00,69.5,68.3,30.01,NE,53,10.0,10.0,96,0.00,,,0.29,Wunderground v.1.15,2013-07-13 01:05:00,
2013-07-12 21:10:00,69.6,68.4,30.02,ENE,57,11.0,11.0,96,0.00,,,0.29,Wunderground v.1.15,2013-07-13 01:10:00,
2013-07-12 21:20:00,69.6,68.4,30.01,ENE,58,10.0,10.0,96,0.00,,,0.29,Wunderground v.1.15,2013-07-13 01:20:00,
2013-07-12 21:25:00,69.5,68.3,30.02,NE,56,10.0,10.0,96,0.00,,,0.29,Wunderground v.1.15,2013-07-13 01:25:00,
2013-07-12 21:35:00,69.4,67.9,30.02,ENE,67,11.0,11.0,95,0.00,,,0.29,Wunderground v.1.15,2013-07-13 01:35:00,
2013-07-12 21:40:00,69.5,68.0,30.02,ENE,57,11.0,11.0,95,0.00,,,0.29,Wunderground v.1.15,2013-07-13 01:40:00,
2013-07-12 21:45:00,69.4,68.2,30.02,ENE,60,10.0,11.0,96,0.00,,,0.29,Wunderground v.1.15,2013-07-13 01:45:00,
2013-07-12 21:50:00,69.4,68.2,30.02,NE,51,9.0,11.0,96,0.00,,,0.29,Wunderground v.1.15,2013-07-13 01:50:00,
2013-07-12 21:55:00,69.5,68.3,30.02,NE,56,9.0,11.0,96,0.00,,,0.29,Wunderground v.1.15,2013-07-13 01:55:00,
2013-07-12 22:00:00,69.6,68.1,30.02,NE,55,9.0,9.0,95,0.00,,,0.29,Wunderground v.1.15,2013-07-13 02:00:00,
2013-07-12 22:05:00,69.5,68.0,30.02,NE,36,9.0,9.0,95,0.00,,,0.29,Wunderground v.1.15,2013-07-13 02:05:00,
2013-07-12 22:10:00,69.6,68.4,30.01,ENE,58,9.0,11.0,96,0.00,,,0.29,Wunderground v.1.15,2013-07-13 02:10:00,
2013-07-12 22:20:00,69.7,68.2,30.01,NE,56,10.0,10.0,95,0.00,,,0.29,Wunderground v.1.15,2013-07-13 02:20:00,
2013-07-12 22:35:00,70.1,68.9,30.02,NE,56,8.0,11.0,96,0.00,,,0.29,Wunderground v.1.15,2013-07-13 02:35:00,
2013-07-12 22:40:00,70.3,69.1,30.02,East,96,8.0,9.0,96,0.00,,,0.29,Wunderground v.1.15,2013-07-13 02:40:00,
2013-07-12 22:50:00,70.7,69.5,30.02,ENE,67,9.0,9.0,96,0.00,,,0.29,Wunderground v.1.15,2013-07-13 02:50:00,
2013-07-12 23:00:00,70.7,69.5,30.02,East,97,8.0,8.0,96,0.00,,,0.29,Wunderground v.1.15,2013-07-13 03:00:00,
2013-07-12 23:05:00,70.6,69.4,30.02,ENE,71,8.0,9.0,96,0.00,,,0.29,Wunderground v.1.15,2013-07-13 03:05:00,
2013-07-12 23:10:00,70.5,69.6,30.02,East,92,8.0,8.0,97,0.00,,,0.29,Wunderground v.1.15,2013-07-13 03:10:00,
2013-07-12 23:25:00,70.6,69.7,30.03,East,82,7.0,11.0,97,0.00,,,0.29,Wunderground v.1.15,2013-07-13 03:25:00,
2013-07-12 23:40:00,70.7,69.8,30.03,East,82,8.0,12.0,97,0.00,,,0.29,Wunderground v.1.15,2013-07-13 03:40:00,
2013-07-12 23:45:00,70.8,69.9,30.03,ESE,109,9.0,12.0,97,0.00,,,0.29,Wunderground v.1.15,2013-07-13 03:45:00,
2013-07-12 23:50:00,70.8,69.9,30.03,East,89,9.0,9.0,97,0.00,,,0.29,Wunderground v.1.15,2013-07-13 03:50:00,